Terminal Aerodrome Forecast
Issued by NWS

Home | Current Version | Previous Version | Graphics & Text | Print | Product List | Glossary On
Versions: 1 2 3 4 5 6 7 8 9 10 11 12 13 14 15 16
000
FTUS43 KUNR 280200 AAA
TAFGCC
TAF AMD
KGCC 280200Z 2802/2824 01008KT 1SM -RA SCT003 OVC007
     FM280600 02006KT 1SM -SN BKN003 OVC006
     FM281400 04011KT 3SM -SN OVC010
     FM281600 04012KT P6SM OVC020=

USA.gov is the U.S. government's official web portal to all federal, state and local government web resources and services.